Weather at Picton (Prince Edward County Hospital) Heliport

Public forecast

Using degrees Celsius for public forecast. Weather courtesy of forecast.io.

Closest aviation weather report (METAR) to Picton (Prince Edward County Hospital) Heliport

Closest report is CFB Trenton, 17.9 nm (33.2 km) WNW.

2023/03/20 15:00 (retrieved 55 minutes ago)

CYTR 201500Z 24014G20KT 15SM FEW030 03/M04 A3011 RMK CU1 DENSITY ALT -1350FT SLP200

Closest aviation forecast (TAF) to Picton (Prince Edward County Hospital) Heliport

Closest forecast is CFB Trenton, 17.9 nm (33.2 km) WNW.

2023/03/20 12:43 (retrieved 3 hours ago)

TAF CYTR 201140Z 2012/2112 25015G25KT P6SM FEW030 FM202100 25015G25KT P6SM SCT030 BKN120 BECMG 2021/2023 25012KT FM210400 25012KT P6SM -SHRA SCT030 BKN060 RMK NXT FCST BY 201800Z